Terminal Aerodrome Forecast
Issued by NWS

Home | Current Version | Previous Version | Text Only | Print | Product List | Glossary On
Versions: 1 2 3 4 5 6 7 8 9 10 11 12 13 14 15 16 17
101
FTUS43 KFGF 301119 AAB
TAFBJI
TAF AMD
KBJI 301119Z 3011/0106 12004KT 2SM BR BKN003
      TEMPO 3012/3016 1/2SM FG OVC003
     FM301600 13006KT P6SM BKN006
     FM301800 14006KT P6SM FEW250=

USA.gov is the U.S. government's official web portal to all federal, state and local government web resources and services.